Terminal Aerodrome Forecast
Issued by NWS Huntsville, AL

Home | Current Version | Previous Version | Text Only | Print | Product List | Glossary On
Versions: 1 2 3 4 5 6 7 8 9 10 11 12 13 14 15 16 17 18 19 20 21 22 23 24 25 26 27
000
FTUS44 KHUN 250520
TAFMSL
TAF
KMSL 250520Z 2506/2606 14010KT P6SM VCSH BKN050
     FM251000 15010KT P6SM OVC050
     FM251600 17010KT P6SM VCSH OVC040
     FM251800 18010KT P6SM OVC050
      TEMPO 2519/2523 5SM -TSRA BR BKN030CB
     FM252300 17010KT P6SM OVC040=

USA.gov is the U.S. government's official web portal to all federal, state and local government web resources and services.